createdAt,value
2019-03-06T00:00:53.375Z,7.77
2019-03-06T00:03:22.677Z,4.43
2019-03-06T00:05:51.658Z,11.10
2019-03-06T00:08:20.638Z,7.67
2019-03-06T00:10:49.965Z,6.20
2019-03-06T00:13:18.974Z,5.07
2019-03-06T00:15:48.121Z,4.63
2019-03-06T00:18:17.079Z,5.57
2019-03-06T00:20:46.213Z,5.13
2019-03-06T00:23:15.062Z,14.57
2019-03-06T00:25:44.498Z,5.03
2019-03-06T00:28:13.802Z,12.60
2019-03-06T00:30:42.612Z,8.30
2019-03-06T00:33:11.585Z,10.77
2019-03-06T00:35:44.096Z,9.60
2019-03-06T00:38:13.040Z,8.33
2019-03-06T00:41:02.538Z,9.40
2019-03-06T00:43:31.423Z,7.43
2019-03-06T00:46:00.239Z,11.07
2019-03-06T00:48:29.511Z,8.70
2019-03-06T00:50:58.540Z,8.90
2019-03-06T00:53:28.103Z,8.13
2019-03-06T00:55:57.048Z,13.30
2019-03-06T00:58:26.742Z,10.87
2019-03-06T01:00:56.271Z,18.70
2019-03-06T01:03:25.275Z,24.33
2019-03-06T01:05:54.750Z,13.43
2019-03-06T01:08:23.803Z,10.73
2019-03-06T01:10:52.805Z,9.20
2019-03-06T01:13:22.279Z,9.90
2019-03-06T01:15:51.446Z,14.93
2019-03-06T01:18:20.391Z,11.83
2019-03-06T01:20:49.336Z,13.90
2019-03-06T01:23:18.200Z,12.27
2019-03-06T01:25:47.183Z,11.27
2019-03-06T01:28:16.117Z,11.53
2019-03-06T01:30:45.143Z,16.30
2019-03-06T01:33:27.064Z,11.10
2019-03-06T01:36:23.993Z,15.60
2019-03-06T01:39:27.198Z,11.60
2019-03-06T01:42:22.547Z,16.07
2019-03-06T01:44:57.907Z,15.20
2019-03-06T01:47:26.779Z,17.63
2019-03-06T01:49:55.702Z,15.60
2019-03-06T01:52:24.635Z,15.97
2019-03-06T01:54:53.537Z,18.67
2019-03-06T01:57:22.462Z,10.30
2019-03-06T01:59:51.793Z,14.70
2019-03-06T02:02:20.785Z,15.93
2019-03-06T02:04:50.051Z,15.00
2019-03-06T02:07:19.045Z,14.60
2019-03-06T02:09:48.030Z,16.30
2019-03-06T02:12:17.321Z,22.83
2019-03-06T02:14:46.348Z,14.87
2019-03-06T02:17:15.541Z,16.83
2019-03-06T02:19:44.459Z,15.47
2019-03-06T02:22:13.384Z,14.90
2019-03-06T02:24:42.273Z,21.57
2019-03-06T02:27:11.147Z,20.67
2019-03-06T02:29:40.177Z,17.10
2019-03-06T02:32:09.002Z,18.73
2019-03-06T02:34:38.241Z,15.47
2019-03-06T02:37:07.156Z,13.63
2019-03-06T02:39:36.121Z,12.97
2019-03-06T02:42:05.077Z,26.70
2019-03-06T02:44:34.029Z,23.57
2019-03-06T02:47:03.013Z,20.17
2019-03-06T02:49:31.932Z,16.23
2019-03-06T02:52:00.972Z,27.50
2019-03-06T02:54:29.817Z,16.40
2019-03-06T02:56:58.753Z,19.60
2019-03-06T02:59:37.936Z,22.77
2019-03-06T03:02:15.202Z,24.93
2019-03-06T03:05:06.116Z,18.07
2019-03-06T03:07:35.022Z,19.00
2019-03-06T03:10:04.524Z,18.17
2019-03-06T03:12:33.453Z,30.40
2019-03-06T03:15:02.374Z,21.03
2019-03-06T03:17:31.427Z,23.43
2019-03-06T03:20:00.543Z,28.27
2019-03-06T03:22:29.523Z,22.13
2019-03-06T03:24:58.388Z,24.07
2019-03-06T03:27:27.277Z,16.13
2019-03-06T03:29:56.185Z,20.80
2019-03-06T03:32:25.015Z,22.80
2019-03-06T03:34:54.389Z,20.27
2019-03-06T03:37:23.596Z,30.33
2019-03-06T03:39:52.485Z,20.67
2019-03-06T03:42:21.819Z,21.23
2019-03-06T03:44:51.014Z,25.77
2019-03-06T03:47:20.186Z,20.37
2019-03-06T03:49:49.054Z,19.13
2019-03-06T03:52:18.017Z,23.90
2019-03-06T03:54:46.891Z,16.17
2019-03-06T03:57:16.046Z,22.47
2019-03-06T03:59:45.053Z,16.53
2019-03-06T04:02:13.988Z,21.40
2019-03-06T04:04:43.313Z,23.53
2019-03-06T04:07:12.634Z,15.60
2019-03-06T04:09:41.907Z,19.10
2019-03-06T04:12:10.825Z,15.20
2019-03-06T04:14:39.767Z,14.57
2019-03-06T04:17:08.776Z,18.33
2019-03-06T04:19:37.698Z,15.17
2019-03-06T04:22:06.731Z,20.23
2019-03-06T04:24:35.757Z,19.92
2019-03-06T04:27:04.764Z,24.67
2019-03-06T04:29:33.674Z,23.00
2019-03-06T04:32:02.565Z,21.93
2019-03-06T04:34:31.433Z,16.40
2019-03-06T04:37:00.351Z,12.63
2019-03-06T04:39:29.210Z,18.30
2019-03-06T04:41:58.048Z,26.13
2019-03-06T04:44:27.391Z,25.40
2019-03-06T04:46:56.222Z,21.60
2019-03-06T04:49:24.627Z,20.37
2019-03-06T04:51:53.579Z,17.97
2019-03-06T04:54:22.817Z,21.30
2019-03-06T04:56:51.707Z,17.47
2019-03-06T04:59:20.701Z,20.40
2019-03-06T05:01:49.731Z,14.67
2019-03-06T05:04:18.623Z,13.70
2019-03-06T05:06:47.512Z,17.50
2019-03-06T05:09:16.738Z,23.33
2019-03-06T05:11:46.023Z,22.00
2019-03-06T05:14:15.289Z,19.53
2019-03-06T05:17:12.579Z,20.23
2019-03-06T05:19:42.015Z,17.30
2019-03-06T05:22:10.895Z,20.50
2019-03-06T05:24:40.199Z,13.07
2019-03-06T05:27:09.039Z,18.10
2019-03-06T05:29:38.124Z,26.50
2019-03-06T05:32:32.772Z,25.43
2019-03-06T05:35:23.466Z,20.23
2019-03-06T05:38:13.393Z,22.97
2019-03-06T05:40:42.351Z,25.57
2019-03-06T05:43:11.253Z,19.80
2019-03-06T05:45:40.349Z,18.20
2019-03-06T05:48:09.239Z,25.00
2019-03-06T05:50:38.184Z,25.03
2019-03-06T05:53:07.208Z,22.53
2019-03-06T05:55:36.067Z,25.13
2019-03-06T05:58:05.250Z,24.53
2019-03-06T06:00:34.319Z,21.50
2019-03-06T06:03:03.286Z,25.13
2019-03-06T06:05:32.235Z,27.87
2019-03-06T06:08:01.381Z,32.43
2019-03-06T06:10:30.382Z,29.60
2019-03-06T06:12:59.347Z,28.70
2019-03-06T06:15:28.225Z,25.37
2019-03-06T06:17:57.611Z,26.60
2019-03-06T06:20:26.483Z,25.07
2019-03-06T06:23:03.886Z,31.17
2019-03-06T06:25:34.080Z,39.70
2019-03-06T06:28:03.131Z,23.37
2019-03-06T06:30:32.095Z,18.30
2019-03-06T06:33:01.247Z,24.90
2019-03-06T06:35:30.918Z,22.43
2019-03-06T06:37:59.970Z,25.00
2019-03-06T06:40:28.953Z,20.33
2019-03-06T06:42:57.939Z,26.90
2019-03-06T06:45:27.087Z,32.03
2019-03-06T06:48:15.623Z,32.63
2019-03-06T06:51:01.163Z,30.77
2019-03-06T06:53:37.007Z,19.33
2019-03-06T06:56:16.319Z,20.63
2019-03-06T06:58:53.405Z,26.53
2019-03-06T07:02:32.971Z,14.30
2019-03-06T07:05:24.530Z,24.20
2019-03-06T07:08:21.313Z,22.97
2019-03-06T07:10:58.631Z,22.37
2019-03-06T07:13:52.703Z,23.13
2019-03-06T07:16:41.668Z,19.90
2019-03-06T07:19:14.438Z,22.67
2019-03-06T07:22:23.959Z,25.80
2019-03-06T07:25:21.808Z,27.13
2019-03-06T07:28:13.271Z,18.83
2019-03-06T07:31:08.615Z,17.30
2019-03-06T07:33:55.602Z,13.60
2019-03-06T07:37:02.383Z,23.40
2019-03-06T07:39:37.151Z,16.87
2019-03-06T07:42:20.924Z,11.23
2019-03-06T07:45:45.212Z,21.60
2019-03-06T07:48:20.615Z,17.90
2019-03-06T07:51:07.717Z,17.90
2019-03-06T07:54:19.681Z,24.40
2019-03-06T07:57:02.900Z,18.50
2019-03-06T07:59:31.898Z,12.07
2019-03-06T08:02:04.676Z,16.90
2019-03-06T08:04:33.571Z,13.23
2019-03-06T08:07:07.844Z,15.30
2019-03-06T08:09:36.661Z,13.07
2019-03-06T08:12:23.608Z,13.40
2019-03-06T08:15:14.625Z,17.67
2019-03-06T08:18:01.523Z,15.33
2019-03-06T08:21:07.819Z,12.17
2019-03-06T08:23:53.809Z,6.20
2019-03-06T08:26:22.625Z,5.43
2019-03-06T08:28:52.842Z,13.27
2019-03-06T08:31:29.870Z,16.00
2019-03-06T08:33:58.685Z,12.43
2019-03-06T08:36:28.459Z,10.18
2019-03-06T08:38:57.603Z,10.40
2019-03-06T08:41:26.436Z,14.67
2019-03-06T08:43:56.179Z,15.17
2019-03-06T08:46:47.471Z,7.83
2019-03-06T08:49:38.528Z,9.53
2019-03-06T08:52:15.626Z,10.73
2019-03-06T08:55:06.088Z,7.53
2019-03-06T08:57:46.972Z,15.07
2019-03-06T09:00:35.350Z,8.33
2019-03-06T09:03:42.442Z,10.70
2019-03-06T09:06:42.829Z,5.90
2019-03-06T09:09:30.987Z,7.13
2019-03-06T09:12:20.839Z,6.20
2019-03-06T09:15:10.470Z,10.17
2019-03-06T09:18:10.391Z,5.13
2019-03-06T09:21:02.320Z,4.00
2019-03-06T09:23:53.930Z,6.20
2019-03-06T09:26:48.659Z,25.97
2019-03-06T09:29:36.634Z,7.87
2019-03-06T09:32:15.256Z,7.90
2019-03-06T09:35:03.260Z,8.97
2019-03-06T09:37:50.403Z,19.67
2019-03-06T09:40:44.241Z,10.63
2019-03-06T09:43:31.460Z,9.40
2019-03-06T09:46:09.591Z,5.90
2019-03-06T09:48:44.856Z,16.43
2019-03-06T09:51:29.311Z,12.33
2019-03-06T09:54:17.061Z,9.93
2019-03-06T09:56:56.343Z,4.90
2019-03-06T09:59:40.267Z,6.50
2019-03-06T10:02:21.717Z,3.70
2019-03-06T10:05:01.562Z,10.10
2019-03-06T10:07:41.210Z,6.20
2019-03-06T10:10:30.127Z,8.93
2019-03-06T10:13:09.869Z,12.00
2019-03-06T10:16:00.877Z,5.87
2019-03-06T10:18:41.007Z,9.93
2019-03-06T10:21:10.600Z,12.40
2019-03-06T10:23:39.701Z,11.00
2019-03-06T10:26:08.838Z,9.60
2019-03-06T10:28:38.887Z,8.30
2019-03-06T10:31:08.323Z,28.60
2019-03-06T10:33:37.647Z,4.77
2019-03-06T10:36:07.658Z,13.33
2019-03-06T10:38:37.474Z,12.00
2019-03-06T10:41:07.135Z,6.60
2019-03-06T10:43:36.082Z,5.80
2019-03-06T10:46:05.107Z,9.37
2019-03-06T10:48:34.447Z,7.07
2019-03-06T10:51:03.425Z,5.73
2019-03-06T10:53:41.042Z,7.30
2019-03-06T10:56:03.359Z,7.90
2019-03-06T10:58:32.723Z,5.10
2019-03-06T11:01:02.102Z,8.13
2019-03-06T11:03:52.988Z,7.87
2019-03-06T11:06:22.005Z,8.50
2019-03-06T11:08:51.653Z,10.03
2019-03-06T11:11:21.063Z,7.90
2019-03-06T11:13:50.894Z,26.30
2019-03-06T11:16:20.035Z,10.83
2019-03-06T11:18:49.508Z,10.17
2019-03-06T11:21:19.440Z,7.07
2019-03-06T11:23:48.428Z,7.87
2019-03-06T11:26:17.413Z,6.53
2019-03-06T11:28:46.448Z,5.50
2019-03-06T11:31:16.092Z,8.03
2019-03-06T11:33:46.135Z,4.43
2019-03-06T11:36:15.400Z,12.13
2019-03-06T11:38:44.478Z,7.63
2019-03-06T11:41:14.466Z,3.77
2019-03-06T11:43:43.491Z,3.70
2019-03-06T11:46:13.507Z,8.23
2019-03-06T11:48:43.475Z,7.77
2019-03-06T11:51:12.432Z,7.27
2019-03-06T11:53:41.491Z,4.10
2019-03-06T11:56:11.194Z,6.63
2019-03-06T11:58:40.488Z,7.40
2019-03-06T12:01:14.709Z,4.10
2019-03-06T12:03:43.752Z,6.73
2019-03-06T12:06:12.834Z,23.00
2019-03-06T12:08:45.903Z,3.83
2019-03-06T12:11:13.756Z,4.77
2019-03-06T12:13:42.920Z,7.57
2019-03-06T12:16:14.804Z,10.77
2019-03-06T12:18:44.366Z,4.03
2019-03-06T12:21:13.773Z,7.10
2019-03-06T12:23:43.198Z,4.33
2019-03-06T12:26:12.403Z,7.07
2019-03-06T12:28:41.763Z,14.90
2019-03-06T12:31:11.175Z,6.17
2019-03-06T12:33:40.303Z,3.00
2019-03-06T12:36:09.321Z,27.70
2019-03-06T12:38:40.151Z,3.43
2019-03-06T12:41:09.311Z,4.93
2019-03-06T12:43:38.505Z,6.77
2019-03-06T12:46:32.821Z,12.00
2019-03-06T12:49:04.367Z,9.47
2019-03-06T12:51:34.783Z,3.97
2019-03-06T12:54:03.978Z,4.07
2019-03-06T12:56:33.177Z,5.40
2019-03-06T12:59:03.550Z,3.87
2019-03-06T13:01:32.665Z,7.03
2019-03-06T13:04:02.191Z,12.93
2019-03-06T13:06:31.480Z,6.17
2019-03-06T13:09:01.158Z,4.20
2019-03-06T13:11:30.576Z,6.53
2019-03-06T13:14:00.034Z,7.53
2019-03-06T13:16:29.919Z,4.43
2019-03-06T13:18:59.203Z,8.37
2019-03-06T13:21:28.153Z,5.20
2019-03-06T13:23:58.857Z,2.73
2019-03-06T13:26:27.958Z,9.53
2019-03-06T13:28:57.655Z,6.10
2019-03-06T13:31:26.924Z,16.43
2019-03-06T13:34:30.427Z,8.03
2019-03-06T13:36:59.403Z,8.10
2019-03-06T13:39:29.044Z,8.30
2019-03-06T13:41:58.082Z,4.20
2019-03-06T13:44:28.155Z,4.60
2019-03-06T13:46:57.258Z,7.40
2019-03-06T13:49:28.075Z,10.53
2019-03-06T13:51:57.292Z,6.70
2019-03-06T13:54:26.414Z,8.27
2019-03-06T13:56:55.326Z,9.80
2019-03-06T13:59:24.275Z,10.77
2019-03-06T14:01:53.578Z,6.73
2019-03-06T14:04:22.730Z,12.27
2019-03-06T14:06:51.729Z,29.10
2019-03-06T14:09:20.651Z,4.73
2019-03-06T14:11:49.728Z,10.00
2019-03-06T14:14:18.698Z,10.33
2019-03-06T14:16:47.695Z,8.93
2019-03-06T14:19:16.786Z,10.93
2019-03-06T14:21:45.914Z,3.93
2019-03-06T14:24:15.238Z,12.80
2019-03-06T14:26:44.306Z,8.93
2019-03-06T14:29:13.444Z,15.10
2019-03-06T14:31:42.956Z,7.60
2019-03-06T14:34:12.051Z,9.13
2019-03-06T14:36:41.284Z,7.53
2019-03-06T14:39:26.348Z,6.53
2019-03-06T14:41:56.049Z,5.73
2019-03-06T14:44:25.317Z,14.67
2019-03-06T14:46:54.336Z,10.43
2019-03-06T14:49:23.386Z,8.20
2019-03-06T14:51:52.602Z,14.37
2019-03-06T14:54:21.642Z,5.87
2019-03-06T14:56:50.620Z,14.73
2019-03-06T14:59:19.692Z,10.67
2019-03-06T15:01:48.650Z,6.27
2019-03-06T15:04:18.760Z,7.73
2019-03-06T15:06:47.888Z,8.60
2019-03-06T15:09:25.057Z,20.73
2019-03-06T15:11:55.496Z,10.33
2019-03-06T15:14:24.408Z,14.03
2019-03-06T15:16:53.363Z,9.03
2019-03-06T15:19:22.686Z,7.50
2019-03-06T15:21:51.684Z,12.03
2019-03-06T15:24:20.631Z,6.33
2019-03-06T15:26:49.691Z,8.63
2019-03-06T15:29:18.590Z,12.63
2019-03-06T15:31:55.515Z,8.30
2019-03-06T15:34:25.154Z,7.77
2019-03-06T15:36:54.233Z,9.57
2019-03-06T15:39:48.089Z,8.30
2019-03-06T15:42:14.570Z,12.73
2019-03-06T15:44:44.189Z,4.57
2019-03-06T15:47:13.697Z,8.80
2019-03-06T15:49:42.592Z,9.33
2019-03-06T15:52:12.469Z,10.00
2019-03-06T15:54:41.558Z,15.83
2019-03-06T15:57:10.810Z,5.37
2019-03-06T15:59:40.079Z,6.57
2019-03-06T16:02:09.439Z,5.50
2019-03-06T16:04:38.744Z,6.53
2019-03-06T16:07:07.719Z,7.33
2019-03-06T16:09:37.853Z,9.37
2019-03-06T16:12:06.957Z,10.10
2019-03-06T16:14:36.380Z,11.00
2019-03-06T16:17:06.688Z,19.70
2019-03-06T16:19:35.953Z,7.13
2019-03-06T16:22:05.444Z,13.60
2019-03-06T16:24:34.709Z,9.20
2019-03-06T16:27:04.378Z,8.90
2019-03-06T16:29:35.077Z,18.43
2019-03-06T16:32:04.846Z,6.83
2019-03-06T16:34:34.032Z,9.50
2019-03-06T16:37:03.344Z,14.17
2019-03-06T16:39:32.587Z,4.17
2019-03-06T16:42:01.630Z,12.40
2019-03-06T16:44:30.746Z,8.40
2019-03-06T16:47:06.415Z,9.13
2019-03-06T16:49:30.562Z,12.03
2019-03-06T16:51:59.808Z,6.30
2019-03-06T16:54:29.043Z,12.63
2019-03-06T16:56:58.255Z,6.70
2019-03-06T16:59:26.788Z,12.13
2019-03-06T17:01:56.089Z,8.77
2019-03-06T17:04:25.916Z,11.03
2019-03-06T17:06:54.820Z,6.00
2019-03-06T17:09:24.029Z,11.23
2019-03-06T17:11:53.236Z,8.47
2019-03-06T17:14:23.261Z,8.43
2019-03-06T17:16:52.558Z,12.87
2019-03-06T17:19:21.855Z,11.00
2019-03-06T17:21:50.676Z,6.63
2019-03-06T17:24:19.958Z,17.67
2019-03-06T17:26:49.066Z,16.83
2019-03-06T17:29:18.032Z,6.00
2019-03-06T17:31:47.151Z,5.93
2019-03-06T17:34:16.543Z,9.63
2019-03-06T17:36:45.852Z,13.43
2019-03-06T17:39:16.118Z,8.27
2019-03-06T17:41:45.491Z,14.67
2019-03-06T17:44:15.049Z,8.90
2019-03-06T17:46:44.270Z,3.97
2019-03-06T17:49:13.344Z,6.97
2019-03-06T17:51:42.570Z,6.50
2019-03-06T17:54:11.794Z,6.97
2019-03-06T17:56:40.789Z,14.67
2019-03-06T17:59:09.943Z,6.80
2019-03-06T18:01:39.325Z,7.20
2019-03-06T18:04:18.922Z,9.53
2019-03-06T18:06:48.326Z,8.87
2019-03-06T18:09:17.508Z,8.30
2019-03-06T18:11:46.410Z,17.50
2019-03-06T18:14:15.384Z,8.13
2019-03-06T18:16:44.481Z,10.37
2019-03-06T18:19:13.438Z,9.83
2019-03-06T18:21:42.547Z,6.07
2019-03-06T18:24:13.078Z,10.43
2019-03-06T18:26:42.593Z,6.50
2019-03-06T18:29:12.223Z,11.53
2019-03-06T18:31:41.332Z,12.67
2019-03-06T18:34:10.718Z,14.23
2019-03-06T18:36:39.898Z,12.27
2019-03-06T18:39:20.509Z,6.43
2019-03-06T18:41:49.651Z,5.17
2019-03-06T18:44:18.740Z,8.00
2019-03-06T18:46:48.408Z,12.50
2019-03-06T18:49:17.754Z,28.23
2019-03-06T18:51:47.375Z,6.70
2019-03-06T18:54:16.782Z,5.70
2019-03-06T18:56:46.025Z,9.13
2019-03-06T18:59:15.111Z,3.20
2019-03-06T19:01:43.946Z,9.13
2019-03-06T19:04:13.469Z,7.13
2019-03-06T19:06:42.371Z,6.20
2019-03-06T19:09:11.462Z,7.40
2019-03-06T19:11:40.550Z,14.60
2019-03-06T19:14:09.741Z,8.23
2019-03-06T19:16:38.744Z,5.15
2019-03-06T19:19:08.351Z,9.00
2019-03-06T19:21:37.542Z,3.70
2019-03-06T19:24:06.960Z,10.63
2019-03-06T19:26:36.074Z,7.72
2019-03-06T19:29:06.154Z,24.03
2019-03-06T19:31:35.570Z,5.10
2019-03-06T19:34:05.962Z,10.83
2019-03-06T19:36:35.462Z,8.93
2019-03-06T19:39:06.335Z,5.83
2019-03-06T19:41:35.836Z,7.70
2019-03-06T19:44:06.256Z,6.83
2019-03-06T19:46:35.325Z,7.03
2019-03-06T19:49:04.675Z,7.13
2019-03-06T19:51:33.803Z,9.47
2019-03-06T19:54:02.943Z,8.40
2019-03-06T19:56:33.804Z,8.20
2019-03-06T19:59:03.108Z,9.20
2019-03-06T20:01:32.893Z,13.73
2019-03-06T20:04:03.606Z,13.87
2019-03-06T20:06:32.730Z,5.73
2019-03-06T20:09:02.175Z,8.73
2019-03-06T20:11:31.247Z,10.67
2019-03-06T20:14:00.504Z,8.13
2019-03-06T20:16:30.079Z,8.40
2019-03-06T20:18:59.094Z,5.83
2019-03-06T20:21:28.574Z,12.70
2019-03-06T20:23:58.055Z,7.40
2019-03-06T20:26:27.704Z,12.27
2019-03-06T20:28:56.940Z,10.50
2019-03-06T20:31:26.142Z,7.50
2019-03-06T20:33:55.127Z,6.57
2019-03-06T20:36:24.129Z,8.33
2019-03-06T20:38:53.137Z,11.97
2019-03-06T20:41:22.160Z,9.10
2019-03-06T20:43:51.540Z,13.60
2019-03-06T20:46:22.305Z,11.40
2019-03-06T20:48:52.075Z,8.60
2019-03-06T20:51:21.750Z,10.63
2019-03-06T20:53:50.620Z,8.23
2019-03-06T20:56:20.717Z,3.80
2019-03-06T20:59:09.046Z,17.27
2019-03-06T21:01:38.652Z,10.53
2019-03-06T21:04:07.951Z,9.50
2019-03-06T21:06:37.706Z,7.33
2019-03-06T21:09:07.871Z,10.43
2019-03-06T21:11:37.200Z,5.93
2019-03-06T21:14:07.198Z,11.57
2019-03-06T21:16:36.130Z,8.13
2019-03-06T21:19:05.123Z,7.20
2019-03-06T21:21:41.136Z,7.97
2019-03-06T21:24:10.635Z,7.23
2019-03-06T21:26:46.181Z,13.37
2019-03-06T21:29:23.375Z,7.63
2019-03-06T21:31:52.970Z,6.83
2019-03-06T21:34:25.055Z,14.83
2019-03-06T21:36:54.956Z,11.87
2019-03-06T21:39:25.322Z,12.70
2019-03-06T21:42:01.988Z,12.17
2019-03-06T21:44:33.728Z,10.87
2019-03-06T21:47:06.210Z,5.60
2019-03-06T21:49:35.382Z,9.03
2019-03-06T21:52:04.624Z,14.03
2019-03-06T21:54:33.777Z,9.73
2019-03-06T21:57:03.000Z,7.27
2019-03-06T21:59:31.821Z,11.00
2019-03-06T22:02:01.169Z,11.03
2019-03-06T22:04:30.131Z,8.67
2019-03-06T22:06:59.988Z,7.00
2019-03-06T22:09:28.858Z,8.57
2019-03-06T22:11:57.673Z,9.53
2019-03-06T22:14:27.059Z,9.63
2019-03-06T22:16:55.936Z,6.73
2019-03-06T22:19:25.048Z,8.13
2019-03-06T22:21:54.439Z,9.33
2019-03-06T22:24:23.859Z,6.60
2019-03-06T22:26:53.192Z,5.70
2019-03-06T22:29:22.021Z,12.10
2019-03-06T22:31:50.919Z,9.90
2019-03-06T22:34:19.923Z,7.73
2019-03-06T22:36:49.289Z,10.03
2019-03-06T22:39:18.160Z,5.17
2019-03-06T22:41:47.168Z,11.90
2019-03-06T22:44:16.368Z,10.57
2019-03-06T22:46:45.633Z,7.30
2019-03-06T22:49:14.488Z,9.07
2019-03-06T22:51:43.733Z,8.60
2019-03-06T22:54:12.557Z,10.30
2019-03-06T22:56:41.520Z,6.23
2019-03-06T22:59:10.446Z,14.50
2019-03-06T23:01:40.708Z,9.60
2019-03-06T23:04:09.635Z,5.87
2019-03-06T23:06:38.480Z,5.50
2019-03-06T23:09:10.434Z,7.20
2019-03-06T23:11:40.031Z,6.27
2019-03-06T23:14:09.030Z,11.50
2019-03-06T23:16:38.325Z,11.40
2019-03-06T23:19:07.911Z,6.20
2019-03-06T23:21:36.830Z,9.50
2019-03-06T23:24:05.824Z,7.43
2019-03-06T23:26:42.460Z,8.17
2019-03-06T23:29:05.757Z,8.80
2019-03-06T23:31:36.440Z,8.47
2019-03-06T23:34:05.809Z,7.03
2019-03-06T23:36:35.058Z,13.33
2019-03-06T23:39:05.431Z,5.60
2019-03-06T23:41:34.575Z,6.10
2019-03-06T23:44:03.575Z,10.73
2019-03-06T23:46:33.141Z,9.87
2019-03-06T23:49:02.464Z,8.17
2019-03-06T23:51:35.925Z,6.03
2019-03-06T23:54:04.934Z,5.07
2019-03-06T23:56:33.939Z,5.20
2019-03-06T23:59:03.620Z,10.13
